createdAt,value
2022-10-15T03:31:08.629Z,14.30
2022-10-15T03:33:42.235Z,14.30
2022-10-15T03:36:15.564Z,14.30
2022-10-15T03:38:48.408Z,14.30
2022-10-15T03:41:22.096Z,14.30
2022-10-15T03:44:00.093Z,14.30
2022-10-15T03:46:34.076Z,14.30
2022-10-15T03:49:07.228Z,14.30
2022-10-15T03:51:39.924Z,14.30
2022-10-15T03:54:16.966Z,14.30
2022-10-15T03:56:56.145Z,14.20
2022-10-15T03:59:37.475Z,14.20
2022-10-15T04:02:10.198Z,14.20
2022-10-15T04:04:43.014Z,14.20
2022-10-15T04:07:15.761Z,14.20
2022-10-15T04:09:48.601Z,14.20
2022-10-15T04:12:28.028Z,14.20
2022-10-15T04:15:00.748Z,14.20
2022-10-15T04:17:34.058Z,14.20
2022-10-15T04:20:07.272Z,14.20
2022-10-15T04:22:39.970Z,14.20
2022-10-15T04:25:13.709Z,14.20
2022-10-15T04:27:46.829Z,14.20
2022-10-15T04:30:23.031Z,14.10
2022-10-15T04:33:01.539Z,14.10
2022-10-15T04:35:35.089Z,14.10
2022-10-15T04:38:16.411Z,14.10
2022-10-15T04:41:09.439Z,14.10
2022-10-15T04:44:05.217Z,14.10
2022-10-15T04:46:38.853Z,14.10
2022-10-15T04:49:27.343Z,14.10
2022-10-15T04:52:00.163Z,14.10
2022-10-15T04:54:42.437Z,14.10
2022-10-15T04:57:15.433Z,14.00
2022-10-15T04:59:48.239Z,14.00
2022-10-15T05:02:44.067Z,14.00
2022-10-15T05:05:28.083Z,14.00
2022-10-15T05:08:06.203Z,14.00
2022-10-15T05:11:02.383Z,14.00
2022-10-15T05:13:36.116Z,14.00
2022-10-15T05:16:14.686Z,14.00
2022-10-15T05:18:54.843Z,14.00
2022-10-15T05:21:28.282Z,14.00
2022-10-15T05:24:05.580Z,14.00
2022-10-15T05:27:03.068Z,14.00
2022-10-15T05:29:39.836Z,14.10
2022-10-15T05:32:13.833Z,14.10
2022-10-15T05:34:47.066Z,14.10
2022-10-15T05:37:22.372Z,14.10
2022-10-15T05:39:55.362Z,14.10
2022-10-15T05:42:28.088Z,14.10
2022-10-15T05:45:04.495Z,14.10
2022-10-15T05:47:37.303Z,14.10
2022-10-15T05:50:25.646Z,14.10
2022-10-15T05:53:01.571Z,14.10
2022-10-15T05:55:42.490Z,14.10
2022-10-15T05:58:15.210Z,14.10
2022-10-15T06:00:58.338Z,14.10
2022-10-15T06:03:31.676Z,14.10
2022-10-15T06:06:04.927Z,14.10
2022-10-15T06:08:41.470Z,14.10
2022-10-15T06:11:14.498Z,14.10
2022-10-15T06:13:47.826Z,14.10
2022-10-15T06:16:23.668Z,14.10
2022-10-15T06:18:57.182Z,14.20
2022-10-15T06:21:30.551Z,14.10
2022-10-15T06:24:05.197Z,14.20
2022-10-15T06:26:40.697Z,14.20
2022-10-15T06:29:13.795Z,14.10
2022-10-15T06:31:46.518Z,14.20
2022-10-15T06:34:19.242Z,14.20
2022-10-15T06:36:52.899Z,14.20
2022-10-15T06:39:25.603Z,14.20
2022-10-15T06:41:58.329Z,14.20
2022-10-15T06:44:43.975Z,14.20
2022-10-15T06:47:17.815Z,14.30
2022-10-15T06:49:53.378Z,14.30
2022-10-15T06:52:26.734Z,14.30
2022-10-15T06:55:00.168Z,14.30
2022-10-15T06:57:33.600Z,14.30
2022-10-15T07:00:07.182Z,14.30
2022-10-15T07:02:39.884Z,14.30
2022-10-15T07:05:12.708Z,14.30
2022-10-15T07:07:53.120Z,14.30
2022-10-15T07:10:28.497Z,14.30
2022-10-15T07:13:02.370Z,14.30
2022-10-15T07:15:35.358Z,14.40
2022-10-15T07:18:08.576Z,14.40
2022-10-15T07:20:42.807Z,14.40
2022-10-15T07:23:15.969Z,14.40
2022-10-15T07:25:48.709Z,14.40
2022-10-15T07:28:21.465Z,14.40
2022-10-15T07:30:54.462Z,14.40
2022-10-15T07:33:27.360Z,14.50
2022-10-15T07:36:11.121Z,14.50
2022-10-15T07:38:43.837Z,14.50
2022-10-15T07:41:16.902Z,14.50
2022-10-15T07:43:53.243Z,14.50
2022-10-15T07:46:26.793Z,14.50
2022-10-15T07:49:01.255Z,14.50
2022-10-15T07:51:33.935Z,14.60
2022-10-15T07:54:06.662Z,14.60
2022-10-15T07:56:39.564Z,14.60
2022-10-15T07:59:12.271Z,14.70
2022-10-15T08:01:47.136Z,14.70
2022-10-15T08:04:22.749Z,14.80
2022-10-15T08:06:55.588Z,14.80
2022-10-15T08:09:28.371Z,14.90
2022-10-15T08:12:01.217Z,14.90
2022-10-15T08:14:35.117Z,14.90
2022-10-15T08:17:07.998Z,15.00
2022-10-15T08:19:40.934Z,15.00
2022-10-15T08:22:14.268Z,15.10
2022-10-15T08:24:47.629Z,15.10
2022-10-15T08:27:20.390Z,15.10
2022-10-15T08:29:53.083Z,15.20
2022-10-15T08:42:43.304Z,15.40
2022-10-15T08:45:38.465Z,15.40
2022-10-15T08:48:14.030Z,15.50
2022-10-15T09:10:34.406Z,15.70
2022-10-15T09:13:27.853Z,15.80
2022-10-15T09:16:17.168Z,15.90
2022-10-15T09:18:52.374Z,16.00
2022-10-15T09:21:26.967Z,16.10
2022-10-15T09:24:03.597Z,16.20
2022-10-15T09:27:11.119Z,16.20
2022-10-15T09:29:51.164Z,16.20
2022-10-15T09:32:51.929Z,16.20
2022-10-15T09:35:42.803Z,16.10
2022-10-15T09:38:43.535Z,16.10
2022-10-15T09:41:56.310Z,16.20
2022-10-15T09:44:43.347Z,16.30
2022-10-15T09:47:16.747Z,16.40
2022-10-15T09:49:49.965Z,16.40
2022-10-15T09:52:44.825Z,16.40
2022-10-15T09:55:42.667Z,16.40
2022-10-15T09:58:27.093Z,16.30
2022-10-15T10:01:02.586Z,16.40
2022-10-15T10:03:40.092Z,16.40
2022-10-15T10:06:14.354Z,16.40
2022-10-15T10:08:59.672Z,16.40
2022-10-15T10:11:48.678Z,16.40
2022-10-15T10:14:33.584Z,16.40
2022-10-15T10:17:16.205Z,16.50
2022-10-15T10:20:10.231Z,16.50
2022-10-15T10:22:55.214Z,16.40
2022-10-15T10:25:32.850Z,16.40
2022-10-15T10:28:16.975Z,16.40
2022-10-15T10:30:56.076Z,16.40
2022-10-15T10:33:39.576Z,16.40
2022-10-15T10:36:42.008Z,16.30
2022-10-15T10:39:40.019Z,16.30
2022-10-15T10:42:20.050Z,16.30
2022-10-15T10:44:53.675Z,16.40
2022-10-15T10:47:27.305Z,16.40
2022-10-15T10:50:01.184Z,16.50
2022-10-15T10:52:37.356Z,16.60
2022-10-15T10:55:25.365Z,16.60
2022-10-15T10:58:01.024Z,16.50
2022-10-15T11:00:35.564Z,16.50
2022-10-15T11:03:34.588Z,16.50
2022-10-15T11:06:51.201Z,16.50
2022-10-15T11:09:57.265Z,16.40
2022-10-15T11:12:30.558Z,16.50
2022-10-15T11:15:25.282Z,16.50
2022-10-15T11:18:25.895Z,16.50
2022-10-15T11:21:17.282Z,16.50
2022-10-15T11:24:23.701Z,16.60
2022-10-15T11:27:11.173Z,16.60
2022-10-15T11:30:28.015Z,16.60
2022-10-15T11:33:22.417Z,16.60
2022-10-15T11:36:36.193Z,16.60
2022-10-15T11:39:46.342Z,16.60
2022-10-15T11:42:29.331Z,16.60
2022-10-15T11:45:20.618Z,16.60
2022-10-15T11:48:05.684Z,16.60
2022-10-15T11:50:49.354Z,16.70
2022-10-15T11:53:45.232Z,16.70
2022-10-15T11:56:22.905Z,16.70
2022-10-15T11:59:01.419Z,16.80
2022-10-15T12:01:43.985Z,16.80
2022-10-15T12:04:39.643Z,16.80
2022-10-15T12:07:43.330Z,16.80
2022-10-15T12:10:58.675Z,16.80
2022-10-15T12:13:51.361Z,16.90
2022-10-15T12:16:34.121Z,16.90
2022-10-15T12:19:19.129Z,16.90
2022-10-15T12:21:54.802Z,16.90
2022-10-15T12:24:38.476Z,16.90
2022-10-15T12:27:20.371Z,16.90
2022-10-15T12:30:12.570Z,16.90
2022-10-15T12:32:48.524Z,16.90
2022-10-15T12:35:25.087Z,16.90
2022-10-15T12:38:21.133Z,17.00
2022-10-15T12:41:01.290Z,17.10
2022-10-15T12:43:38.547Z,17.10
2022-10-15T12:46:13.375Z,17.20
2022-10-15T12:48:46.843Z,17.20
2022-10-15T12:51:22.608Z,17.20
2022-10-15T12:53:57.729Z,17.10
2022-10-15T12:56:41.766Z,17.10
2022-10-15T12:59:54.269Z,17.10
2022-10-15T13:02:35.724Z,17.10
2022-10-15T13:05:24.404Z,17.20
2022-10-15T13:07:59.552Z,17.10
2022-10-15T13:10:47.767Z,17.10
2022-10-15T13:13:32.244Z,17.10
2022-10-15T13:16:09.435Z,17.00
2022-10-15T13:18:47.878Z,17.00
2022-10-15T13:21:20.627Z,17.00
2022-10-15T13:23:53.359Z,17.00
2022-10-15T13:26:27.205Z,17.00
2022-10-15T13:29:00.510Z,17.00
2022-10-15T13:31:37.354Z,17.10
2022-10-15T13:34:26.809Z,17.10
2022-10-15T13:37:02.098Z,17.10
2022-10-15T13:39:40.021Z,17.10
2022-10-15T13:42:21.939Z,17.10
2022-10-15T13:45:03.155Z,17.10
2022-10-15T13:47:40.165Z,17.10
2022-10-15T13:50:29.162Z,17.10
2022-10-15T13:53:21.427Z,17.00
2022-10-15T13:56:00.643Z,16.90
2022-10-15T13:58:38.447Z,16.90
2022-10-15T14:01:20.939Z,16.80
2022-10-15T14:03:59.436Z,16.80
2022-10-15T14:06:38.482Z,16.80
2022-10-15T14:09:19.281Z,16.80
2022-10-15T14:11:52.170Z,16.80
2022-10-15T14:14:33.827Z,16.80
2022-10-15T14:17:09.933Z,16.80
2022-10-15T14:20:21.599Z,16.90
2022-10-15T14:22:51.493Z,16.90
2022-10-15T14:25:25.793Z,16.90
2022-10-15T14:27:58.512Z,16.90
2022-10-15T14:30:33.877Z,16.90
2022-10-15T14:33:31.031Z,16.90
2022-10-15T14:36:19.582Z,16.90
2022-10-15T14:38:53.655Z,16.90
2022-10-15T14:41:31.659Z,16.90
2022-10-15T14:44:17.943Z,16.90
2022-10-15T14:46:59.767Z,16.90
2022-10-15T14:49:34.613Z,16.90
2022-10-15T14:52:14.754Z,16.90
2022-10-15T14:55:00.614Z,16.90
2022-10-15T14:57:39.771Z,16.90
2022-10-15T15:00:34.030Z,16.80
2022-10-15T15:03:07.640Z,16.80
2022-10-15T15:05:52.795Z,16.80
2022-10-15T15:08:26.752Z,16.80
2022-10-15T15:11:03.504Z,16.70
2022-10-15T15:13:43.302Z,16.70
2022-10-15T15:16:18.373Z,16.60
2022-10-15T15:18:51.647Z,16.60
2022-10-15T15:21:24.425Z,16.60
2022-10-15T15:23:57.251Z,16.50
2022-10-15T15:26:30.453Z,16.50
2022-10-15T15:29:03.513Z,16.50
2022-10-15T15:31:40.272Z,16.50
2022-10-15T15:34:13.061Z,16.50
2022-10-15T15:43:59.228Z,16.40
2022-10-15T15:46:31.974Z,16.40
2022-10-15T15:49:04.625Z,16.40
2022-10-15T15:51:37.616Z,16.40
2022-10-15T15:54:10.479Z,16.40
2022-10-15T15:59:19.210Z,16.40
2022-10-15T16:01:55.142Z,16.40
2022-10-15T16:04:28.080Z,16.40
2022-10-15T16:07:00.966Z,16.30
2022-10-15T16:09:33.660Z,16.30
2022-10-15T16:12:06.598Z,16.30
2022-10-15T16:14:39.410Z,16.30
2022-10-15T16:17:12.239Z,16.30
2022-10-15T16:19:45.649Z,16.30
2022-10-15T16:22:18.708Z,16.30
2022-10-15T16:24:51.673Z,16.20
2022-10-15T16:27:27.507Z,16.20
2022-10-15T16:30:04.318Z,16.20
2022-10-15T16:32:40.144Z,16.20
2022-10-15T16:35:16.660Z,16.10
2022-10-15T16:37:52.193Z,16.10
2022-10-15T16:40:24.948Z,16.10
2022-10-15T16:42:57.718Z,16.10
2022-10-15T16:45:30.434Z,16.10
2022-10-15T16:48:03.332Z,16.10
2022-10-15T16:50:36.033Z,16.00
2022-10-15T16:53:08.732Z,16.00
2022-10-15T16:55:41.426Z,16.00
2022-10-15T16:58:14.126Z,16.00
2022-10-15T17:00:46.800Z,16.00
2022-10-15T17:03:19.621Z,16.00
2022-10-15T17:06:00.591Z,16.00
2022-10-15T17:08:53.975Z,16.00
2022-10-15T17:11:37.113Z,16.00
2022-10-15T17:14:13.091Z,15.90
2022-10-15T17:16:48.199Z,15.90
2022-10-15T17:19:27.835Z,15.90
2022-10-15T17:22:03.342Z,15.90
2022-10-15T17:24:36.152Z,15.80
2022-10-15T17:27:08.975Z,15.80
2022-10-15T17:29:41.763Z,15.90
2022-10-15T17:32:14.482Z,15.90
2022-10-15T17:34:47.217Z,15.80
2022-10-15T17:37:20.069Z,15.80
2022-10-15T17:39:53.409Z,15.80
2022-10-15T17:42:26.378Z,15.70
2022-10-15T17:44:59.498Z,15.70
2022-10-15T17:47:32.263Z,15.70
2022-10-15T17:50:06.545Z,15.70
2022-10-15T17:52:39.236Z,15.60
2022-10-15T17:55:12.189Z,15.60
2022-10-15T17:57:45.183Z,15.70
2022-10-15T18:00:18.089Z,15.70
2022-10-15T18:02:51.199Z,15.60
2022-10-15T18:05:24.001Z,15.60
2022-10-15T18:07:56.819Z,15.50
2022-10-15T18:10:36.832Z,15.50
2022-10-15T18:13:34.213Z,15.50
2022-10-15T18:16:18.186Z,15.50
2022-10-15T18:18:52.117Z,15.50
2022-10-15T18:21:25.970Z,15.50
2022-10-15T18:24:00.851Z,15.50
2022-10-15T18:26:33.563Z,15.40
2022-10-15T18:29:06.950Z,15.40
2022-10-15T18:31:39.644Z,15.40
2022-10-15T18:34:12.361Z,15.40
2022-10-15T18:36:45.575Z,15.30
2022-10-15T18:39:21.310Z,15.30
2022-10-15T18:41:54.285Z,15.30
2022-10-15T18:44:29.220Z,15.30
2022-10-15T18:47:01.898Z,15.30
2022-10-15T18:49:35.233Z,15.30
2022-10-15T18:52:21.563Z,15.30
2022-10-15T18:55:00.831Z,15.30
2022-10-15T18:57:34.798Z,15.30
2022-10-15T19:00:09.029Z,15.20
2022-10-15T19:02:41.811Z,15.30
2022-10-15T19:05:14.612Z,15.20
2022-10-15T19:07:47.298Z,15.30
2022-10-15T19:10:20.169Z,15.20
2022-10-15T19:12:52.978Z,15.30
2022-10-15T19:15:26.291Z,15.20
2022-10-15T19:17:59.216Z,15.20
2022-10-15T19:20:33.146Z,15.20
2022-10-15T19:23:09.191Z,15.20
2022-10-15T19:25:42.835Z,15.30
2022-10-15T19:28:15.710Z,15.30
2022-10-15T19:30:58.700Z,15.20
2022-10-15T19:33:32.659Z,15.20
2022-10-15T19:36:05.514Z,15.20
2022-10-15T19:38:38.420Z,15.20
2022-10-15T19:41:11.788Z,15.20
2022-10-15T19:43:45.222Z,15.10
2022-10-15T19:46:17.978Z,15.10
2022-10-15T19:48:51.872Z,15.10
2022-10-15T19:51:27.463Z,15.10
2022-10-15T19:54:00.301Z,15.10
2022-10-15T19:56:36.927Z,15.10
2022-10-15T19:59:11.143Z,15.10
2022-10-15T20:04:46.105Z,15.10
2022-10-15T20:07:19.134Z,15.10
2022-10-15T20:09:51.902Z,15.00
2022-10-15T20:12:24.731Z,15.00
2022-10-15T20:14:57.430Z,15.00
2022-10-15T20:17:30.307Z,15.00
2022-10-15T20:20:03.801Z,15.00
2022-10-15T20:22:36.530Z,15.00
2022-10-15T20:25:09.407Z,15.00
2022-10-15T20:27:42.287Z,15.00
2022-10-15T20:30:14.985Z,15.00
2022-10-15T20:32:47.875Z,15.00
2022-10-15T20:35:20.808Z,15.00
